sensor_id;sensor_type;location;lat;lon;timestamp;pressure;altitude;pressure_sealevel;temperature;humidity
50065;BME280;35951;47.848;-122.338;2022-09-27T00:02:21;101041.56;;;21.20;100.00
50065;BME280;35951;47.848;-122.338;2022-09-27T00:04:49;101040.25;;;21.20;100.00
50065;BME280;35951;47.848;-122.338;2022-09-27T00:07:16;101041.03;;;21.23;100.00
50065;BME280;35951;47.848;-122.338;2022-09-27T00:09:44;101042.70;;;21.26;100.00
50065;BME280;35951;47.848;-122.338;2022-09-27T00:12:12;101035.17;;;21.28;100.00
50065;BME280;35951;47.848;-122.338;2022-09-27T00:14:39;101039.03;;;21.32;100.00
50065;BME280;35951;47.848;-122.338;2022-09-27T00:17:06;101035.95;;;21.32;100.00
50065;BME280;35951;47.848;-122.338;2022-09-27T00:19:34;101034.13;;;21.34;100.00
50065;BME280;35951;47.848;-122.338;2022-09-27T00:22:02;101029.23;;;21.35;100.00
50065;BME280;35951;47.848;-122.338;2022-09-27T00:24:30;101030.56;;;21.35;100.00
50065;BME280;35951;47.848;-122.338;2022-09-27T00:26:57;101028.42;;;21.33;100.00
50065;BME280;35951;47.848;-122.338;2022-09-27T00:29:24;101026.78;;;21.29;100.00
50065;BME280;35951;47.848;-122.338;2022-09-27T00:31:52;101025.50;;;21.27;100.00
50065;BME280;35951;47.848;-122.338;2022-09-27T00:34:20;101019.35;;;21.27;100.00
50065;BME280;35951;47.848;-122.338;2022-09-27T00:36:48;101018.42;;;21.28;100.00
50065;BME280;35951;47.848;-122.338;2022-09-27T00:39:16;101024.14;;;21.29;100.00
50065;BME280;35951;47.848;-122.338;2022-09-27T00:41:44;101021.49;;;21.29;100.00
50065;BME280;35951;47.848;-122.338;2022-09-27T00:47:05;101017.50;;;21.31;100.00
50065;BME280;35951;47.848;-122.338;2022-09-27T00:49:37;101008.67;;;21.30;100.00
50065;BME280;35951;47.848;-122.338;2022-09-27T00:52:17;101011.82;;;21.28;100.00
50065;BME280;35951;47.848;-122.338;2022-09-27T00:54:45;101010.61;;;21.25;100.00
50065;BME280;35951;47.848;-122.338;2022-09-27T00:57:14;101010.33;;;21.19;100.00
50065;BME280;35951;47.848;-122.338;2022-09-27T00:59:43;101008.30;;;21.13;100.00
50065;BME280;35951;47.848;-122.338;2022-09-27T01:02:11;101010.23;;;21.06;100.00
50065;BME280;35951;47.848;-122.338;2022-09-27T01:04:38;101006.02;;;20.99;100.00
50065;BME280;35951;47.848;-122.338;2022-09-27T01:07:06;101000.09;;;20.90;100.00
50065;BME280;35951;47.848;-122.338;2022-09-27T01:09:33;101003.84;;;20.82;100.00
50065;BME280;35951;47.848;-122.338;2022-09-27T01:12:17;101003.05;;;20.78;100.00
50065;BME280;35951;47.848;-122.338;2022-09-27T01:23:23;101008.08;;;20.71;100.00
50065;BME280;35951;47.848;-122.338;2022-09-27T01:28:46;101009.66;;;20.59;100.00
50065;BME280;35951;47.848;-122.338;2022-09-27T01:34:29;101013.69;;;20.39;100.00
50065;BME280;35951;47.848;-122.338;2022-09-27T01:44:57;101006.25;;;20.00;100.00
50065;BME280;35951;47.848;-122.338;2022-09-27T01:47:40;101004.19;;;19.93;100.00
50065;BME280;35951;47.848;-122.338;2022-09-27T01:50:12;101001.24;;;19.87;100.00
50065;BME280;35951;47.848;-122.338;2022-09-27T01:52:48;101003.08;;;19.84;100.00
50065;BME280;35951;47.848;-122.338;2022-09-27T01:55:29;101007.12;;;19.79;100.00
50065;BME280;35951;47.848;-122.338;2022-09-27T01:58:01;101011.65;;;19.74;100.00
50065;BME280;35951;47.848;-122.338;2022-09-27T02:00:31;101013.48;;;19.69;100.00
50065;BME280;35951;47.848;-122.338;2022-09-27T02:03:07;101021.49;;;19.63;100.00
50065;BME280;35951;47.848;-122.338;2022-09-27T02:05:40;101018.54;;;19.57;100.00
50065;BME280;35951;47.848;-122.338;2022-09-27T02:08:11;101017.02;;;19.47;100.00
50065;BME280;35951;47.848;-122.338;2022-09-27T02:10:40;101019.89;;;19.34;100.00
50065;BME280;35951;47.848;-122.338;2022-09-27T02:13:20;101016.16;;;19.22;100.00
50065;BME280;35951;47.848;-122.338;2022-09-27T02:18:35;101016.47;;;19.07;100.00
50065;BME280;35951;47.848;-122.338;2022-09-27T02:21:04;101020.11;;;18.99;100.00
50065;BME280;35951;47.848;-122.338;2022-09-27T02:23:38;101018.03;;;18.93;100.00
50065;BME280;35951;47.848;-122.338;2022-09-27T02:26:11;101015.04;;;18.89;100.00
50065;BME280;35951;47.848;-122.338;2022-09-27T02:28:50;101018.22;;;18.82;100.00
50065;BME280;35951;47.848;-122.338;2022-09-27T02:31:18;101024.05;;;18.74;100.00
50065;BME280;35951;47.848;-122.338;2022-09-27T02:33:53;101021.95;;;18.67;100.00
50065;BME280;35951;47.848;-122.338;2022-09-27T02:36:18;101021.61;;;18.61;100.00
50065;BME280;35951;47.848;-122.338;2022-09-27T02:38:45;101020.43;;;18.54;100.00
50065;BME280;35951;47.848;-122.338;2022-09-27T02:41:18;101019.63;;;18.49;100.00
50065;BME280;35951;47.848;-122.338;2022-09-27T02:43:43;101021.48;;;18.42;100.00
50065;BME280;35951;47.848;-122.338;2022-09-27T03:05:06;101030.59;;;18.21;100.00
50065;BME280;35951;47.848;-122.338;2022-09-27T03:07:33;101024.45;;;18.19;100.00
50065;BME280;35951;47.848;-122.338;2022-09-27T03:10:03;101029.31;;;18.18;100.00
50065;BME280;35951;47.848;-122.338;2022-09-27T03:12:31;101028.01;;;18.16;100.00
50065;BME280;35951;47.848;-122.338;2022-09-27T03:14:58;101022.77;;;18.15;100.00
50065;BME280;35951;47.848;-122.338;2022-09-27T03:17:26;101028.48;;;18.14;100.00
50065;BME280;35951;47.848;-122.338;2022-09-27T03:19:53;101029.81;;;18.13;100.00
50065;BME280;35951;47.848;-122.338;2022-09-27T03:22:20;101030.69;;;18.12;100.00
50065;BME280;35951;47.848;-122.338;2022-09-27T03:24:47;101026.36;;;18.09;100.00
50065;BME280;35951;47.848;-122.338;2022-09-27T03:27:15;101032.08;;;18.09;100.00
50065;BME280;35951;47.848;-122.338;2022-09-27T03:29:42;101029.00;;;18.08;100.00
50065;BME280;35951;47.848;-122.338;2022-09-27T03:32:10;101036.89;;;18.08;100.00
50065;BME280;35951;47.848;-122.338;2022-09-27T03:34:37;101034.28;;;18.06;100.00
50065;BME280;35951;47.848;-122.338;2022-09-27T03:37:04;101034.33;;;18.05;100.00
50065;BME280;35951;47.848;-122.338;2022-09-27T03:39:33;101029.09;;;18.03;100.00
50065;BME280;35951;47.848;-122.338;2022-09-27T03:42:00;101038.77;;;18.01;100.00
50065;BME280;35951;47.848;-122.338;2022-09-27T03:44:27;101038.78;;;17.99;100.00
50065;BME280;35951;47.848;-122.338;2022-09-27T03:46:54;101041.83;;;17.99;100.00
50065;BME280;35951;47.848;-122.338;2022-09-27T03:49:21;101048.87;;;17.97;100.00
50065;BME280;35951;47.848;-122.338;2022-09-27T03:51:48;101052.41;;;17.96;100.00
50065;BME280;35951;47.848;-122.338;2022-09-27T03:54:16;101055.50;;;17.94;100.00
50065;BME280;35951;47.848;-122.338;2022-09-27T03:56:43;101047.63;;;17.92;100.00
50065;BME280;35951;47.848;-122.338;2022-09-27T03:59:10;101051.59;;;17.91;100.00
50065;BME280;35951;47.848;-122.338;2022-09-27T04:01:37;101052.45;;;17.91;100.00
50065;BME280;35951;47.848;-122.338;2022-09-27T04:04:04;101055.92;;;17.93;100.00
50065;BME280;35951;47.848;-122.338;2022-09-27T04:06:31;101059.85;;;17.95;100.00
50065;BME280;35951;47.848;-122.338;2022-09-27T04:08:59;101063.33;;;17.97;100.00
50065;BME280;35951;47.848;-122.338;2022-09-27T04:11:26;101060.70;;;17.97;100.00
50065;BME280;35951;47.848;-122.338;2022-09-27T04:13:53;101061.59;;;17.97;100.00
50065;BME280;35951;47.848;-122.338;2022-09-27T04:16:21;101055.44;;;17.97;100.00
50065;BME280;35951;47.848;-122.338;2022-09-27T04:18:48;101053.28;;;17.95;100.00
50065;BME280;35951;47.848;-122.338;2022-09-27T04:21:15;101053.75;;;17.93;100.00
50065;BME280;35951;47.848;-122.338;2022-09-27T04:23:41;101057.72;;;17.90;100.00
50065;BME280;35951;47.848;-122.338;2022-09-27T04:26:08;101063.92;;;17.86;100.00
50065;BME280;35951;47.848;-122.338;2022-09-27T04:28:35;101063.90;;;17.84;100.00
50065;BME280;35951;47.848;-122.338;2022-09-27T04:31:02;101061.33;;;17.81;100.00
50065;BME280;35951;47.848;-122.338;2022-09-27T04:33:30;101069.65;;;17.79;100.00
50065;BME280;35951;47.848;-122.338;2022-09-27T04:35:57;101067.08;;;17.76;100.00
50065;BME280;35951;47.848;-122.338;2022-09-27T04:38:42;101077.14;;;17.76;100.00
50065;BME280;35951;47.848;-122.338;2022-09-27T04:41:10;101074.98;;;17.74;100.00
50065;BME280;35951;47.848;-122.338;2022-09-27T04:43:38;101073.70;;;17.71;100.00
50065;BME280;35951;47.848;-122.338;2022-09-27T04:46:05;101070.67;;;17.69;100.00
50065;BME280;35951;47.848;-122.338;2022-09-27T04:48:32;101067.21;;;17.65;100.00
50065;BME280;35951;47.848;-122.338;2022-09-27T04:50:59;101063.75;;;17.61;100.00
50065;BME280;35951;47.848;-122.338;2022-09-27T04:53:30;101064.68;;;17.57;100.00
50065;BME280;35951;47.848;-122.338;2022-09-27T04:55:57;101059.92;;;17.52;100.00
50065;BME280;35951;47.848;-122.338;2022-09-27T04:58:26;101060.40;;;17.49;100.00
50065;BME280;35951;47.848;-122.338;2022-09-27T05:00:54;101058.26;;;17.43;100.00
50065;BME280;35951;47.848;-122.338;2022-09-27T05:03:22;101056.98;;;17.39;100.00
50065;BME280;35951;47.848;-122.338;2022-09-27T05:05:49;101057.50;;;17.34;100.00
50065;BME280;35951;47.848;-122.338;2022-09-27T05:08:16;101054.47;;;17.28;100.00
50065;BME280;35951;47.848;-122.338;2022-09-27T05:10:43;101056.25;;;17.26;100.00
50065;BME280;35951;47.848;-122.338;2022-09-27T05:13:10;101056.25;;;17.24;100.00
50065;BME280;35951;47.848;-122.338;2022-09-27T05:15:37;101058.92;;;17.23;100.00
50065;BME280;35951;47.848;-122.338;2022-09-27T05:18:04;101055.87;;;17.20;100.00
50065;BME280;35951;47.848;-122.338;2022-09-27T05:20:32;101055.03;;;17.17;100.00
50065;BME280;35951;47.848;-122.338;2022-09-27T05:23:00;101058.13;;;17.13;100.00
50065;BME280;35951;47.848;-122.338;2022-09-27T05:25:29;101054.66;;;17.10;100.00
50065;BME280;35951;47.848;-122.338;2022-09-27T05:27:56;101060.36;;;17.09;100.00
50065;BME280;35951;47.848;-122.338;2022-09-27T05:30:25;101059.06;;;17.07;100.00
50065;BME280;35951;47.848;-122.338;2022-09-27T05:32:52;101061.69;;;17.06;100.00
50065;BME280;35951;47.848;-122.338;2022-09-27T05:35:20;101066.53;;;17.05;100.00
50065;BME280;35951;47.848;-122.338;2022-09-27T05:37:53;101064.39;;;17.00;100.00
50065;BME280;35951;47.848;-122.338;2022-09-27T05:40:21;101068.34;;;16.98;100.00
50065;BME280;35951;47.848;-122.338;2022-09-27T05:42:52;101064.86;;;16.96;100.00
50065;BME280;35951;47.848;-122.338;2022-09-27T05:45:20;101064.02;;;16.93;100.00
50065;BME280;35951;47.848;-122.338;2022-09-27T05:47:51;101063.16;;;16.91;100.00
50065;BME280;35951;47.848;-122.338;2022-09-27T05:50:22;101067.97;;;16.89;100.00
50065;BME280;35951;47.848;-122.338;2022-09-27T05:52:49;101065.35;;;16.88;100.00
50065;BME280;35951;47.848;-122.338;2022-09-27T05:55:16;101061.92;;;16.83;100.00
50065;BME280;35951;47.848;-122.338;2022-09-27T05:57:52;101066.30;;;16.78;100.00
50065;BME280;35951;47.848;-122.338;2022-09-27T06:00:21;101065.91;;;16.72;100.00
50065;BME280;35951;47.848;-122.338;2022-09-27T06:02:53;101062.45;;;16.67;100.00
50065;BME280;35951;47.848;-122.338;2022-09-27T06:05:21;101061.20;;;16.61;100.00
50065;BME280;35951;47.848;-122.338;2022-09-27T06:07:48;101061.66;;;16.57;100.00
50065;BME280;35951;47.848;-122.338;2022-09-27T06:10:17;101062.98;;;16.54;100.00
50065;BME280;35951;47.848;-122.338;2022-09-27T06:12:44;101060.37;;;16.53;100.00
50065;BME280;35951;47.848;-122.338;2022-09-27T06:15:12;101061.23;;;16.51;100.00
50065;BME280;35951;47.848;-122.338;2022-09-27T06:17:40;101060.38;;;16.49;100.00
50065;BME280;35951;47.848;-122.338;2022-09-27T06:20:08;101059.08;;;16.48;100.00
50065;BME280;35951;47.848;-122.338;2022-09-27T06:22:35;101059.53;;;16.46;100.00
50065;BME280;35951;47.848;-122.338;2022-09-27T06:25:03;101062.20;;;16.43;100.00
50065;BME280;35951;47.848;-122.338;2022-09-27T06:27:31;101063.97;;;16.39;100.00
50065;BME280;35951;47.848;-122.338;2022-09-27T06:29:58;101063.11;;;16.37;100.00
50065;BME280;35951;47.848;-122.338;2022-09-27T06:32:26;101059.19;;;16.34;100.00
50065;BME280;35951;47.848;-122.338;2022-09-27T06:34:53;101059.66;;;16.29;100.00
50065;BME280;35951;47.848;-122.338;2022-09-27T06:37:23;101060.11;;;16.25;100.00
50065;BME280;35951;47.848;-122.338;2022-09-27T06:39:52;101053.57;;;16.22;100.00
50065;BME280;35951;47.848;-122.338;2022-09-27T06:42:20;101058.81;;;16.21;100.00
50065;BME280;35951;47.848;-122.338;2022-09-27T06:44:47;101061.47;;;16.19;100.00
50065;BME280;35951;47.848;-122.338;2022-09-27T06:47:15;101053.16;;;16.18;100.00
50065;BME280;35951;47.848;-122.338;2022-09-27T06:49:43;101054.92;;;16.18;100.00
50065;BME280;35951;47.848;-122.338;2022-09-27T06:52:10;101052.77;;;16.14;100.00
50065;BME280;35951;47.848;-122.338;2022-09-27T06:54:37;101047.52;;;16.11;100.00
50065;BME280;35951;47.848;-122.338;2022-09-27T06:57:04;101042.30;;;16.08;100.00
50065;BME280;35951;47.848;-122.338;2022-09-27T06:59:32;101044.09;;;16.03;100.00
50065;BME280;35951;47.848;-122.338;2022-09-27T07:02:17;101053.28;;;15.97;100.00
50065;BME280;35951;47.848;-122.338;2022-09-27T07:04:44;101048.95;;;15.89;100.00
50065;BME280;35951;47.848;-122.338;2022-09-27T07:07:11;101056.39;;;15.87;100.00
50065;BME280;35951;47.848;-122.338;2022-09-27T07:09:39;101053.78;;;15.82;100.00
50065;BME280;35951;47.848;-122.338;2022-09-27T07:12:08;101046.82;;;15.78;100.00
50065;BME280;35951;47.848;-122.338;2022-09-27T07:14:36;101049.03;;;15.76;100.00
50065;BME280;35951;47.848;-122.338;2022-09-27T07:17:03;101049.45;;;15.72;100.00
50065;BME280;35951;47.848;-122.338;2022-09-27T07:19:30;101049.00;;;15.69;100.00
50065;BME280;35951;47.848;-122.338;2022-09-27T07:21:57;101044.66;;;15.64;100.00
50065;BME280;35951;47.848;-122.338;2022-09-27T07:24:24;101052.52;;;15.62;100.00
50065;BME280;35951;47.848;-122.338;2022-09-27T07:26:51;101056.03;;;15.61;100.00
50065;BME280;35951;47.848;-122.338;2022-09-27T07:29:18;101050.34;;;15.62;100.00
50065;BME280;35951;47.848;-122.338;2022-09-27T07:31:45;101054.27;;;15.65;100.00
50065;BME280;35951;47.848;-122.338;2022-09-27T07:34:12;101055.14;;;15.68;100.00
50065;BME280;35951;47.848;-122.338;2022-09-27T07:36:41;101058.17;;;15.69;100.00
50065;BME280;35951;47.848;-122.338;2022-09-27T07:39:08;101056.45;;;15.68;100.00
50065;BME280;35951;47.848;-122.338;2022-09-27T07:41:36;101065.61;;;15.64;100.00
50065;BME280;35951;47.848;-122.338;2022-09-27T07:44:05;101059.52;;;15.59;100.00
50065;BME280;35951;47.848;-122.338;2022-09-27T07:46:33;101068.27;;;15.56;100.00
50065;BME280;35951;47.848;-122.338;2022-09-27T07:49:00;101061.30;;;15.53;100.00
50065;BME280;35951;47.848;-122.338;2022-09-27T07:51:28;101061.72;;;15.51;100.00
50065;BME280;35951;47.848;-122.338;2022-09-27T07:53:55;101059.55;;;15.49;100.00
50065;BME280;35951;47.848;-122.338;2022-09-27T07:56:23;101061.75;;;15.50;100.00
50065;BME280;35951;47.848;-122.338;2022-09-27T07:58:51;101057.79;;;15.51;100.00
50065;BME280;35951;47.848;-122.338;2022-09-27T08:01:18;101060.86;;;15.54;100.00
50065;BME280;35951;47.848;-122.338;2022-09-27T08:03:46;101060.41;;;15.54;100.00
50065;BME280;35951;47.848;-122.338;2022-09-27T08:06:13;101064.34;;;15.54;100.00
50065;BME280;35951;47.848;-122.338;2022-09-27T08:08:42;101063.89;;;15.57;100.00
50065;BME280;35951;47.848;-122.338;2022-09-27T08:11:14;101070.44;;;15.57;100.00
50065;BME280;35951;47.848;-122.338;2022-09-27T08:13:41;101072.64;;;15.54;100.00
50065;BME280;35951;47.848;-122.338;2022-09-27T08:16:09;101073.95;;;15.54;100.00
50065;BME280;35951;47.848;-122.338;2022-09-27T08:18:36;101076.12;;;15.53;100.00
50065;BME280;35951;47.848;-122.338;2022-09-27T08:21:04;101072.20;;;15.51;100.00
50065;BME280;35951;47.848;-122.338;2022-09-27T08:23:31;101071.33;;;15.49;100.00
50065;BME280;35951;47.848;-122.338;2022-09-27T08:25:58;101074.39;;;15.47;100.00
50065;BME280;35951;47.848;-122.338;2022-09-27T08:28:25;101066.98;;;15.45;100.00
50065;BME280;35951;47.848;-122.338;2022-09-27T08:30:52;101068.30;;;15.44;100.00
50065;BME280;35951;47.848;-122.338;2022-09-27T08:33:19;101067.43;;;15.42;100.00
50065;BME280;35951;47.848;-122.338;2022-09-27T08:35:46;101064.81;;;15.40;100.00
50065;BME280;35951;47.848;-122.338;2022-09-27T08:38:13;101066.56;;;15.40;100.00
50065;BME280;35951;47.848;-122.338;2022-09-27T08:40:56;101059.58;;;15.39;100.00
50065;BME280;35951;47.848;-122.338;2022-09-27T08:43:30;101058.71;;;15.36;100.00
50065;BME280;35951;47.848;-122.338;2022-09-27T08:49:18;101057.44;;;15.33;100.00
50065;BME280;35951;47.848;-122.338;2022-09-27T08:51:58;101052.61;;;15.33;100.00
50065;BME280;35951;47.848;-122.338;2022-09-27T08:54:30;101045.66;;;15.32;100.00
50065;BME280;35951;47.848;-122.338;2022-09-27T08:57:00;101046.96;;;15.32;100.00
50065;BME280;35951;47.848;-122.338;2022-09-27T08:59:29;101049.58;;;15.30;100.00
50065;BME280;35951;47.848;-122.338;2022-09-27T09:01:59;101050.47;;;15.25;100.00
50065;BME280;35951;47.848;-122.338;2022-09-27T09:04:37;101048.29;;;15.20;100.00
50065;BME280;35951;47.848;-122.338;2022-09-27T09:12:40;101048.31;;;15.10;100.00
50065;BME280;35951;47.848;-122.338;2022-09-27T09:20:36;101047.45;;;14.99;100.00
50065;BME280;35951;47.848;-122.338;2022-09-27T09:23:10;101047.89;;;14.94;100.00
50065;BME280;35951;47.848;-122.338;2022-09-27T09:28:31;101045.30;;;14.86;100.00
50065;BME280;35951;47.848;-122.338;2022-09-27T09:31:23;101050.94;;;14.86;100.00
50065;BME280;35951;47.848;-122.338;2022-09-27T09:33:51;101044.42;;;14.83;100.00
50065;BME280;35951;47.848;-122.338;2022-09-27T09:36:33;101043.09;;;14.78;100.00
50065;BME280;35951;47.848;-122.338;2022-09-27T09:39:07;101041.78;;;14.75;100.00
50065;BME280;35951;47.848;-122.338;2022-09-27T09:41:45;101041.38;;;14.75;100.00
50065;BME280;35951;47.848;-122.338;2022-09-27T09:44:17;101040.06;;;14.74;100.00
50065;BME280;35951;47.848;-122.338;2022-09-27T09:46:45;101045.29;;;14.74;100.00
50065;BME280;35951;47.848;-122.338;2022-09-27T09:49:16;101035.68;;;14.71;100.00
50065;BME280;35951;47.848;-122.338;2022-09-27T09:51:52;101037.42;;;14.69;100.00
50065;BME280;35951;47.848;-122.338;2022-09-27T09:57:01;101034.83;;;14.65;100.00
50065;BME280;35951;47.848;-122.338;2022-09-27T09:59:32;101033.95;;;14.59;100.00
50065;BME280;35951;47.848;-122.338;2022-09-27T10:04:58;101039.14;;;14.56;100.00
50065;BME280;35951;47.848;-122.338;2022-09-27T10:07:26;101040.89;;;14.56;100.00
50065;BME280;35951;47.848;-122.338;2022-09-27T10:09:54;101040.44;;;14.56;100.00
50065;BME280;35951;47.848;-122.338;2022-09-27T10:12:24;101036.12;;;14.58;100.00
50065;BME280;35951;47.848;-122.338;2022-09-27T10:14:51;101034.81;;;14.60;100.00
50065;BME280;35951;47.848;-122.338;2022-09-27T10:17:20;101032.20;;;14.60;100.00
50065;BME280;35951;47.848;-122.338;2022-09-27T10:19:49;101037.01;;;14.57;100.00
50065;BME280;35951;47.848;-122.338;2022-09-27T10:22:21;101043.06;;;14.56;100.00
50065;BME280;35951;47.848;-122.338;2022-09-27T10:24:57;101038.27;;;14.53;100.00
50065;BME280;35951;47.848;-122.338;2022-09-27T10:27:36;101033.03;;;14.51;100.00
50065;BME280;35951;47.848;-122.338;2022-09-27T10:30:04;101034.77;;;14.49;100.00
50065;BME280;35951;47.848;-122.338;2022-09-27T10:32:32;101027.36;;;14.46;100.00
50065;BME280;35951;47.848;-122.338;2022-09-27T10:37:48;101020.84;;;14.41;100.00
50065;BME280;35951;47.848;-122.338;2022-09-27T10:40:18;101013.44;;;14.39;100.00
50065;BME280;35951;47.848;-122.338;2022-09-27T10:42:53;101012.98;;;14.38;100.00
50065;BME280;35951;47.848;-122.338;2022-09-27T10:45:31;101011.68;;;14.38;100.00
50065;BME280;35951;47.848;-122.338;2022-09-27T10:48:00;101014.28;;;14.36;100.00
50065;BME280;35951;47.848;-122.338;2022-09-27T10:50:28;101006.44;;;14.33;100.00
50065;BME280;35951;47.848;-122.338;2022-09-27T10:53:01;101011.69;;;14.32;100.00
50065;BME280;35951;47.848;-122.338;2022-09-27T10:55:31;101009.92;;;14.29;100.00
50065;BME280;35951;47.848;-122.338;2022-09-27T10:58:00;101012.98;;;14.29;100.00
50065;BME280;35951;47.848;-122.338;2022-09-27T11:00:31;101014.27;;;14.26;100.00
50065;BME280;35951;47.848;-122.338;2022-09-27T11:03:11;101013.86;;;14.26;100.00
50065;BME280;35951;47.848;-122.338;2022-09-27T11:05:41;101019.09;;;14.26;100.00
50065;BME280;35951;47.848;-122.338;2022-09-27T11:11:05;101012.08;;;14.20;100.00
50065;BME280;35951;47.848;-122.338;2022-09-27T11:13:40;101018.64;;;14.19;100.00
50065;BME280;35951;47.848;-122.338;2022-09-27T11:21:52;101025.59;;;14.14;100.00
50065;BME280;35951;47.848;-122.338;2022-09-27T11:24:35;101022.97;;;14.12;100.00
50065;BME280;35951;47.848;-122.338;2022-09-27T11:38:24;101018.59;;;14.04;100.00
50065;BME280;35951;47.848;-122.338;2022-09-27T11:46:20;101020.33;;;14.01;100.00
50065;BME280;35951;47.848;-122.338;2022-09-27T11:54:15;101028.58;;;13.96;100.00
50065;BME280;35951;47.848;-122.338;2022-09-27T12:08:28;101026.84;;;13.92;100.00
50065;BME280;35951;47.848;-122.338;2022-09-27T12:11:00;101031.61;;;13.91;100.00
50065;BME280;35951;47.848;-122.338;2022-09-27T12:16:02;101032.48;;;13.89;100.00
50065;BME280;35951;47.848;-122.338;2022-09-27T12:18:34;101034.64;;;13.88;100.00
50065;BME280;35951;47.848;-122.338;2022-09-27T12:21:03;101032.92;;;13.88;100.00
50065;BME280;35951;47.848;-122.338;2022-09-27T12:26:09;101030.75;;;13.86;100.00
50065;BME280;35951;47.848;-122.338;2022-09-27T12:28:53;101034.67;;;13.86;100.00
50065;BME280;35951;47.848;-122.338;2022-09-27T12:31:50;101028.98;;;13.83;100.00
50065;BME280;35951;47.848;-122.338;2022-09-27T12:34:24;101028.55;;;13.81;100.00
50065;BME280;35951;47.848;-122.338;2022-09-27T12:39:50;101018.95;;;13.78;100.00
50065;BME280;35951;47.848;-122.338;2022-09-27T12:42:23;101018.08;;;13.76;100.00
50065;BME280;35951;47.848;-122.338;2022-09-27T12:44:48;101015.05;;;13.75;100.00
50065;BME280;35951;47.848;-122.338;2022-09-27T12:47:23;101008.91;;;13.73;100.00
50065;BME280;35951;47.848;-122.338;2022-09-27T12:52:54;100999.33;;;13.69;100.00
50065;BME280;35951;47.848;-122.338;2022-09-27T13:01:00;100996.30;;;13.67;100.00
50065;BME280;35951;47.848;-122.338;2022-09-27T13:03:34;101001.07;;;13.67;100.00
50065;BME280;35951;47.848;-122.338;2022-09-27T13:09:20;101001.08;;;13.69;100.00
50065;BME280;35951;47.848;-122.338;2022-09-27T13:11:40;101003.67;;;13.66;100.00
50065;BME280;35951;47.848;-122.338;2022-09-27T13:14:21;100997.58;;;13.63;100.00
50065;BME280;35951;47.848;-122.338;2022-09-27T13:16:45;101004.56;;;13.65;100.00
50065;BME280;35951;47.848;-122.338;2022-09-27T13:22:03;101003.27;;;13.66;100.00
50065;BME280;35951;47.848;-122.338;2022-09-27T13:30:42;101011.50;;;13.66;100.00
50065;BME280;35951;47.848;-122.338;2022-09-27T13:32:27;101009.76;;;13.61;100.00
50065;BME280;35951;47.848;-122.338;2022-09-27T13:34:55;101008.88;;;13.59;100.00
50065;BME280;35951;47.848;-122.338;2022-09-27T13:48:31;101004.10;;;13.59;100.00
50065;BME280;35951;47.848;-122.338;2022-09-27T13:53:35;101005.81;;;13.57;100.00
50065;BME280;35951;47.848;-122.338;2022-09-27T13:56:04;101008.01;;;13.57;100.00
50065;BME280;35951;47.848;-122.338;2022-09-27T13:58:41;101015.83;;;13.56;100.00
50065;BME280;35951;47.848;-122.338;2022-09-27T14:01:28;101019.28;;;13.53;100.00
50065;BME280;35951;47.848;-122.338;2022-09-27T14:04:02;101014.93;;;13.51;100.00
50065;BME280;35951;47.848;-122.338;2022-09-27T14:06:31;101025.80;;;13.49;100.00
50065;BME280;35951;47.848;-122.338;2022-09-27T14:09:04;101023.61;;;13.45;100.00
50065;BME280;35951;47.848;-122.338;2022-09-27T14:11:36;101023.59;;;13.43;100.00
50065;BME280;35951;47.848;-122.338;2022-09-27T14:14:04;101021.41;;;13.41;100.00
50065;BME280;35951;47.848;-122.338;2022-09-27T14:16:34;101016.63;;;13.39;100.00
50065;BME280;35951;47.848;-122.338;2022-09-27T14:19:01;101013.56;;;13.38;100.00
50065;BME280;35951;47.848;-122.338;2022-09-27T14:21:30;101017.05;;;13.37;100.00
50065;BME280;35951;47.848;-122.338;2022-09-27T14:29:48;100998.33;;;13.36;100.00
50065;BME280;35951;47.848;-122.338;2022-09-27T14:32:23;101002.67;;;13.34;100.00
50065;BME280;35951;47.848;-122.338;2022-09-27T14:35:06;100996.15;;;13.34;100.00
50065;BME280;35951;47.848;-122.338;2022-09-27T14:37:58;101000.91;;;13.33;100.00
50065;BME280;35951;47.848;-122.338;2022-09-27T14:40:26;100993.53;;;13.33;100.00
50065;BME280;35951;47.848;-122.338;2022-09-27T14:42:54;100993.97;;;13.32;100.00
50065;BME280;35951;47.848;-122.338;2022-09-27T14:45:32;101003.52;;;13.33;100.00
50065;BME280;35951;47.848;-122.338;2022-09-27T14:48:01;100997.44;;;13.33;100.00
50065;BME280;35951;47.848;-122.338;2022-09-27T14:50:30;100993.53;;;13.33;100.00
50065;BME280;35951;47.848;-122.338;2022-09-27T14:52:59;100992.66;;;13.32;100.00
50065;BME280;35951;47.848;-122.338;2022-09-27T14:55:29;100992.22;;;13.33;100.00
50065;BME280;35951;47.848;-122.338;2022-09-27T14:57:59;100986.16;;;13.34;100.00
50065;BME280;35951;47.848;-122.338;2022-09-27T15:00:31;100981.81;;;13.36;100.00
50065;BME280;35951;47.848;-122.338;2022-09-27T15:03:01;100982.69;;;13.38;100.00
50065;BME280;35951;47.848;-122.338;2022-09-27T15:05:30;100981.41;;;13.41;100.00
50065;BME280;35951;47.848;-122.338;2022-09-27T15:08:00;100982.27;;;13.41;100.00